Cape Newenham Lrrs Airport
PAEH : now visible

Aeroporto :











RITROVATECI SU...

 
LOGIN :

Iscrizione | Disclaimer

   EN    FR    IT 

 









Sommario :    VFR   VFR Marginale   IFR   IFR Intensivo   IFR Molto Intensivo
Visibilità : 
Base nubi : 
>= 8 km
>= 3000ft
5 / 8 km
1000 / 3000 ft
1500m / 5 km
500 / 1000 ft
800 / 1500m
200 / 500 ft
< 800m
< 200 ft
Simboli :   Temporali  Nebbia  Neve Forte  Precipitazioni Forti  Vento > 20 kt






- Altitudine del aeroporto : 541 ft
- Codice IATA : EHM


PAEH - Cape Newenham Lrrs

ULTIMO METAR :
  • 011855Z AUTO 07016KT 10SM CLR 10/04 A2947 RMK AO2 SLP982 T01030037 $

METARs OBSOLETI :
  • 011755Z AUTO 08010KT 10SM CLR 09/04 A2947 RMK AO2 SLP981 T00910041 10085 20074 52007 $
  • 011655Z AUTO 09006KT 10SM CLR 08/04 A2947 RMK AO2 SLP980 T00790043 $

Previsioni scadute.
FIR PAZA / America del Nord



MetMap, La meteo Aeronautica in un colpo d'occhio ! - Copyright ORBIFLY Dicembre 2007 - Disclaimer

ORBIFLY MET'MAP TEAM :

Programmazione e sviluppo : Alexandra Zaïnal
Concezione : Baudouin d'Aumeries
Aiuto per la programmazione : Marc-Olivier Méhu
Supporto tecnico e logistico : Manuel Goepfert
Aiuto per la traduzione : Arnaldo La Scala

Contatto : metmap@orbifly.com




FONTI E CREDITI :

   NOAA       Earth
Advisory